sensor_id;sensor_type;location;lat;lon;timestamp;temperature;humidity
17715;DHT22;8977;50.902;4.314;2022-10-16T00:01:16;17.20;99.90
17715;DHT22;8977;50.902;4.314;2022-10-16T00:03:44;17.30;99.90
17715;DHT22;8977;50.902;4.314;2022-10-16T00:06:12;17.30;99.90
17715;DHT22;8977;50.902;4.314;2022-10-16T00:08:40;17.20;99.90
17715;DHT22;8977;50.902;4.314;2022-10-16T00:11:11;17.10;99.90
17715;DHT22;8977;50.902;4.314;2022-10-16T00:13:40;17.20;99.90
17715;DHT22;8977;50.902;4.314;2022-10-16T00:16:09;17.20;99.90
17715;DHT22;8977;50.902;4.314;2022-10-16T00:18:36;17.20;99.90
17715;DHT22;8977;50.902;4.314;2022-10-16T00:21:06;17.10;99.90
17715;DHT22;8977;50.902;4.314;2022-10-16T00:23:33;17.10;99.90
17715;DHT22;8977;50.902;4.314;2022-10-16T00:26:02;17.10;99.90
17715;DHT22;8977;50.902;4.314;2022-10-16T00:28:31;17.20;99.90
17715;DHT22;8977;50.902;4.314;2022-10-16T00:30:58;17.20;99.90
17715;DHT22;8977;50.902;4.314;2022-10-16T00:33:25;17.20;99.90
17715;DHT22;8977;50.902;4.314;2022-10-16T00:35:52;17.20;99.90
17715;DHT22;8977;50.902;4.314;2022-10-16T00:38:18;17.10;99.90
17715;DHT22;8977;50.902;4.314;2022-10-16T00:40:45;17.20;99.90
17715;DHT22;8977;50.902;4.314;2022-10-16T00:43:14;17.20;99.90
17715;DHT22;8977;50.902;4.314;2022-10-16T00:45:42;17.20;99.90
17715;DHT22;8977;50.902;4.314;2022-10-16T00:48:13;17.10;99.90
17715;DHT22;8977;50.902;4.314;2022-10-16T00:50:41;17.10;99.90
17715;DHT22;8977;50.902;4.314;2022-10-16T00:53:10;17.10;99.90
17715;DHT22;8977;50.902;4.314;2022-10-16T00:55:38;17.10;99.90
17715;DHT22;8977;50.902;4.314;2022-10-16T00:58:05;17.10;99.90
17715;DHT22;8977;50.902;4.314;2022-10-16T01:00:32;17.10;99.90
17715;DHT22;8977;50.902;4.314;2022-10-16T01:03:02;17.10;99.90
17715;DHT22;8977;50.902;4.314;2022-10-16T01:05:33;17.10;99.90
17715;DHT22;8977;50.902;4.314;2022-10-16T01:08:07;17.20;99.90
17715;DHT22;8977;50.902;4.314;2022-10-16T01:10:39;17.10;99.90
17715;DHT22;8977;50.902;4.314;2022-10-16T01:13:09;17.10;99.90
17715;DHT22;8977;50.902;4.314;2022-10-16T01:15:39;17.10;99.90
17715;DHT22;8977;50.902;4.314;2022-10-16T01:18:11;17.10;99.90
17715;DHT22;8977;50.902;4.314;2022-10-16T01:20:45;17.10;99.90
17715;DHT22;8977;50.902;4.314;2022-10-16T01:23:27;17.00;99.90
17715;DHT22;8977;50.902;4.314;2022-10-16T01:26:14;17.00;99.90
17715;DHT22;8977;50.902;4.314;2022-10-16T01:28:49;17.00;99.90
17715;DHT22;8977;50.902;4.314;2022-10-16T01:31:19;17.00;99.90
17715;DHT22;8977;50.902;4.314;2022-10-16T01:33:53;17.00;99.90
17715;DHT22;8977;50.902;4.314;2022-10-16T01:36:25;17.00;99.90
17715;DHT22;8977;50.902;4.314;2022-10-16T01:38:54;17.00;99.90
17715;DHT22;8977;50.902;4.314;2022-10-16T01:41:27;17.00;99.90
17715;DHT22;8977;50.902;4.314;2022-10-16T01:44:01;17.00;99.90
17715;DHT22;8977;50.902;4.314;2022-10-16T01:46:31;17.00;99.90
17715;DHT22;8977;50.902;4.314;2022-10-16T01:48:59;17.00;99.90
17715;DHT22;8977;50.902;4.314;2022-10-16T01:51:28;17.00;99.90
17715;DHT22;8977;50.902;4.314;2022-10-16T01:53:58;17.00;99.90
17715;DHT22;8977;50.902;4.314;2022-10-16T01:56:26;17.00;99.90
17715;DHT22;8977;50.902;4.314;2022-10-16T01:58:57;17.00;99.90
17715;DHT22;8977;50.902;4.314;2022-10-16T02:01:27;16.90;99.90
17715;DHT22;8977;50.902;4.314;2022-10-16T02:03:57;16.90;99.90
17715;DHT22;8977;50.902;4.314;2022-10-16T02:06:25;16.90;99.90
17715;DHT22;8977;50.902;4.314;2022-10-16T02:08:53;16.90;99.90
17715;DHT22;8977;50.902;4.314;2022-10-16T02:11:20;17.00;99.90
17715;DHT22;8977;50.902;4.314;2022-10-16T02:13:51;16.90;99.90
17715;DHT22;8977;50.902;4.314;2022-10-16T02:16:26;16.90;99.90
17715;DHT22;8977;50.902;4.314;2022-10-16T02:18:58;16.90;99.90
17715;DHT22;8977;50.902;4.314;2022-10-16T02:21:27;16.90;99.90
17715;DHT22;8977;50.902;4.314;2022-10-16T02:23:59;16.90;99.90
17715;DHT22;8977;50.902;4.314;2022-10-16T02:26:30;16.90;99.90
17715;DHT22;8977;50.902;4.314;2022-10-16T02:29:01;17.00;99.90
17715;DHT22;8977;50.902;4.314;2022-10-16T02:31:35;17.00;99.90
17715;DHT22;8977;50.902;4.314;2022-10-16T02:34:03;16.90;99.90
17715;DHT22;8977;50.902;4.314;2022-10-16T02:36:32;16.90;99.90
17715;DHT22;8977;50.902;4.314;2022-10-16T02:39:01;16.90;99.90
17715;DHT22;8977;50.902;4.314;2022-10-16T02:41:30;16.90;99.90
17715;DHT22;8977;50.902;4.314;2022-10-16T02:43:57;16.90;99.90
17715;DHT22;8977;50.902;4.314;2022-10-16T02:46:23;16.90;99.90
17715;DHT22;8977;50.902;4.314;2022-10-16T02:48:52;16.90;99.90
17715;DHT22;8977;50.902;4.314;2022-10-16T02:51:19;16.90;99.90
17715;DHT22;8977;50.902;4.314;2022-10-16T02:53:45;16.90;99.90
17715;DHT22;8977;50.902;4.314;2022-10-16T02:56:12;16.90;99.90
17715;DHT22;8977;50.902;4.314;2022-10-16T02:58:39;16.90;99.90
17715;DHT22;8977;50.902;4.314;2022-10-16T03:01:06;16.90;99.90
17715;DHT22;8977;50.902;4.314;2022-10-16T03:03:33;16.90;99.90
17715;DHT22;8977;50.902;4.314;2022-10-16T03:06:01;16.90;99.90
17715;DHT22;8977;50.902;4.314;2022-10-16T03:08:28;16.90;99.90
17715;DHT22;8977;50.902;4.314;2022-10-16T03:10:55;16.90;99.90
17715;DHT22;8977;50.902;4.314;2022-10-16T03:13:23;16.90;99.90
17715;DHT22;8977;50.902;4.314;2022-10-16T03:15:50;16.90;99.90
17715;DHT22;8977;50.902;4.314;2022-10-16T03:18:16;16.80;99.90
17715;DHT22;8977;50.902;4.314;2022-10-16T03:20:43;16.90;99.90
17715;DHT22;8977;50.902;4.314;2022-10-16T03:23:12;16.90;99.90
17715;DHT22;8977;50.902;4.314;2022-10-16T03:25:39;16.90;99.90
17715;DHT22;8977;50.902;4.314;2022-10-16T03:28:06;16.90;99.90
17715;DHT22;8977;50.902;4.314;2022-10-16T03:30:33;16.90;99.90
17715;DHT22;8977;50.902;4.314;2022-10-16T03:33:00;16.90;99.90
17715;DHT22;8977;50.902;4.314;2022-10-16T03:35:27;16.90;99.90
17715;DHT22;8977;50.902;4.314;2022-10-16T03:37:55;16.80;99.90
17715;DHT22;8977;50.902;4.314;2022-10-16T03:40:24;16.90;99.90
17715;DHT22;8977;50.902;4.314;2022-10-16T03:42:52;16.90;99.90
17715;DHT22;8977;50.902;4.314;2022-10-16T03:45:20;16.90;99.90
17715;DHT22;8977;50.902;4.314;2022-10-16T03:47:47;16.80;99.90
17715;DHT22;8977;50.902;4.314;2022-10-16T03:50:14;16.80;99.90
17715;DHT22;8977;50.902;4.314;2022-10-16T03:52:41;16.80;99.90
17715;DHT22;8977;50.902;4.314;2022-10-16T03:55:08;16.80;99.90
17715;DHT22;8977;50.902;4.314;2022-10-16T03:57:37;16.80;99.90
17715;DHT22;8977;50.902;4.314;2022-10-16T04:00:04;16.80;99.90
17715;DHT22;8977;50.902;4.314;2022-10-16T04:02:31;16.80;99.90
17715;DHT22;8977;50.902;4.314;2022-10-16T04:04:58;16.80;99.90
17715;DHT22;8977;50.902;4.314;2022-10-16T04:07:25;16.80;99.90
17715;DHT22;8977;50.902;4.314;2022-10-16T04:09:52;16.80;99.90
17715;DHT22;8977;50.902;4.314;2022-10-16T04:12:18;16.90;99.90
17715;DHT22;8977;50.902;4.314;2022-10-16T04:14:47;16.80;99.90
17715;DHT22;8977;50.902;4.314;2022-10-16T04:17:13;16.80;99.90
17715;DHT22;8977;50.902;4.314;2022-10-16T04:19:40;16.80;99.90
17715;DHT22;8977;50.902;4.314;2022-10-16T04:22:07;16.80;99.90
17715;DHT22;8977;50.902;4.314;2022-10-16T04:24:35;16.80;99.90
17715;DHT22;8977;50.902;4.314;2022-10-16T04:27:01;16.80;99.90
17715;DHT22;8977;50.902;4.314;2022-10-16T04:29:28;16.80;99.90
17715;DHT22;8977;50.902;4.314;2022-10-16T04:31:56;16.80;99.90
17715;DHT22;8977;50.902;4.314;2022-10-16T04:34:23;16.80;99.90
17715;DHT22;8977;50.902;4.314;2022-10-16T04:36:50;16.90;99.90
17715;DHT22;8977;50.902;4.314;2022-10-16T04:39:18;16.80;99.90
17715;DHT22;8977;50.902;4.314;2022-10-16T04:41:45;16.80;99.90
17715;DHT22;8977;50.902;4.314;2022-10-16T04:44:12;16.80;99.90
17715;DHT22;8977;50.902;4.314;2022-10-16T04:46:39;16.70;99.90
17715;DHT22;8977;50.902;4.314;2022-10-16T04:49:07;16.70;99.90
17715;DHT22;8977;50.902;4.314;2022-10-16T04:51:34;16.70;99.90
17715;DHT22;8977;50.902;4.314;2022-10-16T04:54:02;16.70;99.90
17715;DHT22;8977;50.902;4.314;2022-10-16T04:56:28;16.70;99.90
17715;DHT22;8977;50.902;4.314;2022-10-16T04:58:56;16.70;99.90
17715;DHT22;8977;50.902;4.314;2022-10-16T05:01:22;16.70;99.90
17715;DHT22;8977;50.902;4.314;2022-10-16T05:03:49;16.80;99.90
17715;DHT22;8977;50.902;4.314;2022-10-16T05:06:17;16.80;99.90
17715;DHT22;8977;50.902;4.314;2022-10-16T05:08:44;16.80;99.90
17715;DHT22;8977;50.902;4.314;2022-10-16T05:11:11;16.70;99.90
17715;DHT22;8977;50.902;4.314;2022-10-16T05:13:38;16.70;99.90
17715;DHT22;8977;50.902;4.314;2022-10-16T05:16:05;16.70;99.90
17715;DHT22;8977;50.902;4.314;2022-10-16T05:18:32;16.70;99.90
17715;DHT22;8977;50.902;4.314;2022-10-16T05:20:59;16.70;99.90
17715;DHT22;8977;50.902;4.314;2022-10-16T05:23:28;16.60;99.90
17715;DHT22;8977;50.902;4.314;2022-10-16T05:25:55;16.60;99.90
17715;DHT22;8977;50.902;4.314;2022-10-16T05:28:24;16.70;99.90
17715;DHT22;8977;50.902;4.314;2022-10-16T05:30:51;16.70;99.90
17715;DHT22;8977;50.902;4.314;2022-10-16T05:33:19;16.60;99.90
17715;DHT22;8977;50.902;4.314;2022-10-16T05:35:47;16.60;99.90
17715;DHT22;8977;50.902;4.314;2022-10-16T05:38:15;16.70;99.90
17715;DHT22;8977;50.902;4.314;2022-10-16T05:40:44;16.70;99.90
17715;DHT22;8977;50.902;4.314;2022-10-16T05:43:17;16.60;99.90
17715;DHT22;8977;50.902;4.314;2022-10-16T05:45:45;16.70;99.90
17715;DHT22;8977;50.902;4.314;2022-10-16T05:48:19;16.60;99.90
17715;DHT22;8977;50.902;4.314;2022-10-16T05:50:46;16.60;99.90
17715;DHT22;8977;50.902;4.314;2022-10-16T05:53:14;16.70;99.90
17715;DHT22;8977;50.902;4.314;2022-10-16T05:55:42;16.70;99.90
17715;DHT22;8977;50.902;4.314;2022-10-16T05:58:09;16.70;99.90
17715;DHT22;8977;50.902;4.314;2022-10-16T06:00:36;16.60;99.90
17715;DHT22;8977;50.902;4.314;2022-10-16T06:03:03;16.60;99.90
17715;DHT22;8977;50.902;4.314;2022-10-16T06:05:32;16.60;99.90
17715;DHT22;8977;50.902;4.314;2022-10-16T06:07:59;16.70;99.90
17715;DHT22;8977;50.902;4.314;2022-10-16T06:10:26;16.60;99.90
17715;DHT22;8977;50.902;4.314;2022-10-16T06:12:55;16.60;99.90
17715;DHT22;8977;50.902;4.314;2022-10-16T06:15:22;16.60;99.90
17715;DHT22;8977;50.902;4.314;2022-10-16T06:17:49;16.70;99.90
17715;DHT22;8977;50.902;4.314;2022-10-16T06:20:16;16.60;99.90
17715;DHT22;8977;50.902;4.314;2022-10-16T06:22:43;16.60;99.90
17715;DHT22;8977;50.902;4.314;2022-10-16T06:25:09;16.70;99.90
17715;DHT22;8977;50.902;4.314;2022-10-16T06:27:39;16.70;99.90
17715;DHT22;8977;50.902;4.314;2022-10-16T06:30:08;16.70;99.90
17715;DHT22;8977;50.902;4.314;2022-10-16T06:32:35;16.70;99.90
17715;DHT22;8977;50.902;4.314;2022-10-16T06:35:03;16.70;99.90
17715;DHT22;8977;50.902;4.314;2022-10-16T06:37:29;16.70;99.90
17715;DHT22;8977;50.902;4.314;2022-10-16T06:39:56;16.60;99.90
17715;DHT22;8977;50.902;4.314;2022-10-16T06:42:23;16.70;99.90
17715;DHT22;8977;50.902;4.314;2022-10-16T06:44:50;16.70;99.90
17715;DHT22;8977;50.902;4.314;2022-10-16T06:47:18;16.70;99.90
17715;DHT22;8977;50.902;4.314;2022-10-16T06:49:44;16.70;99.90
17715;DHT22;8977;50.902;4.314;2022-10-16T06:52:11;16.70;99.90
17715;DHT22;8977;50.902;4.314;2022-10-16T06:54:38;16.70;99.90
17715;DHT22;8977;50.902;4.314;2022-10-16T06:57:05;16.70;99.90
17715;DHT22;8977;50.902;4.314;2022-10-16T06:59:32;16.70;99.90
17715;DHT22;8977;50.902;4.314;2022-10-16T07:01:58;16.60;99.90
17715;DHT22;8977;50.902;4.314;2022-10-16T07:04:27;16.60;99.90
17715;DHT22;8977;50.902;4.314;2022-10-16T07:06:53;16.60;99.90
17715;DHT22;8977;50.902;4.314;2022-10-16T07:09:20;16.70;99.90
17715;DHT22;8977;50.902;4.314;2022-10-16T07:11:47;16.70;99.90
17715;DHT22;8977;50.902;4.314;2022-10-16T07:14:16;16.70;99.90
17715;DHT22;8977;50.902;4.314;2022-10-16T07:16:43;16.70;99.90
17715;DHT22;8977;50.902;4.314;2022-10-16T07:19:10;16.70;99.90
17715;DHT22;8977;50.902;4.314;2022-10-16T07:21:40;16.70;99.90
17715;DHT22;8977;50.902;4.314;2022-10-16T07:24:11;16.70;99.90
17715;DHT22;8977;50.902;4.314;2022-10-16T07:26:38;16.70;99.90
17715;DHT22;8977;50.902;4.314;2022-10-16T07:29:06;16.70;99.90
17715;DHT22;8977;50.902;4.314;2022-10-16T07:31:33;16.60;99.90
17715;DHT22;8977;50.902;4.314;2022-10-16T07:34:00;16.60;99.90
17715;DHT22;8977;50.902;4.314;2022-10-16T07:36:27;16.80;99.90
17715;DHT22;8977;50.902;4.314;2022-10-16T07:38:55;16.70;99.90
17715;DHT22;8977;50.902;4.314;2022-10-16T07:41:22;16.80;99.90
17715;DHT22;8977;50.902;4.314;2022-10-16T07:43:50;16.80;99.90
17715;DHT22;8977;50.902;4.314;2022-10-16T07:46:18;16.80;99.90
17715;DHT22;8977;50.902;4.314;2022-10-16T07:48:45;16.70;99.90
17715;DHT22;8977;50.902;4.314;2022-10-16T07:51:14;16.80;99.90
17715;DHT22;8977;50.902;4.314;2022-10-16T07:53:42;16.80;99.90
17715;DHT22;8977;50.902;4.314;2022-10-16T07:56:10;16.70;99.90
17715;DHT22;8977;50.902;4.314;2022-10-16T07:58:37;16.70;99.90
17715;DHT22;8977;50.902;4.314;2022-10-16T08:01:04;16.80;99.90
17715;DHT22;8977;50.902;4.314;2022-10-16T08:03:32;16.70;99.90
17715;DHT22;8977;50.902;4.314;2022-10-16T08:05:59;16.80;99.90
17715;DHT22;8977;50.902;4.314;2022-10-16T08:08:27;16.80;99.90
17715;DHT22;8977;50.902;4.314;2022-10-16T08:10:54;16.80;99.90
17715;DHT22;8977;50.902;4.314;2022-10-16T08:13:23;16.90;99.90
17715;DHT22;8977;50.902;4.314;2022-10-16T08:15:50;16.80;99.90
17715;DHT22;8977;50.902;4.314;2022-10-16T08:18:16;17.00;99.90
17715;DHT22;8977;50.902;4.314;2022-10-16T08:20:43;17.10;99.90
17715;DHT22;8977;50.902;4.314;2022-10-16T08:23:11;17.10;99.90
17715;DHT22;8977;50.902;4.314;2022-10-16T08:25:39;17.10;99.90
17715;DHT22;8977;50.902;4.314;2022-10-16T08:28:07;17.10;99.90
17715;DHT22;8977;50.902;4.314;2022-10-16T08:30:36;17.10;99.90
17715;DHT22;8977;50.902;4.314;2022-10-16T08:33:02;17.00;99.90
17715;DHT22;8977;50.902;4.314;2022-10-16T08:35:29;17.00;99.90
17715;DHT22;8977;50.902;4.314;2022-10-16T08:37:56;17.00;99.90
17715;DHT22;8977;50.902;4.314;2022-10-16T08:40:24;17.10;99.90
17715;DHT22;8977;50.902;4.314;2022-10-16T08:43:18;17.20;99.90
17715;DHT22;8977;50.902;4.314;2022-10-16T08:46:04;17.10;99.90
17715;DHT22;8977;50.902;4.314;2022-10-16T08:48:38;17.20;99.90
17715;DHT22;8977;50.902;4.314;2022-10-16T08:51:08;17.20;99.90
17715;DHT22;8977;50.902;4.314;2022-10-16T08:53:43;17.10;99.90
17715;DHT22;8977;50.902;4.314;2022-10-16T08:56:11;17.20;99.90
17715;DHT22;8977;50.902;4.314;2022-10-16T08:58:38;17.20;99.90
17715;DHT22;8977;50.902;4.314;2022-10-16T09:01:12;17.20;99.90
17715;DHT22;8977;50.902;4.314;2022-10-16T09:04:09;17.30;99.90
17715;DHT22;8977;50.902;4.314;2022-10-16T09:06:46;17.40;99.90
17715;DHT22;8977;50.902;4.314;2022-10-16T09:09:38;17.50;99.90
17715;DHT22;8977;50.902;4.314;2022-10-16T09:12:14;17.50;99.90
17715;DHT22;8977;50.902;4.314;2022-10-16T09:14:56;17.50;99.90
17715;DHT22;8977;50.902;4.314;2022-10-16T09:17:36;17.60;99.90
17715;DHT22;8977;50.902;4.314;2022-10-16T09:20:19;17.60;99.90
17715;DHT22;8977;50.902;4.314;2022-10-16T09:22:46;17.60;99.90
17715;DHT22;8977;50.902;4.314;2022-10-16T09:25:15;17.60;99.90
17715;DHT22;8977;50.902;4.314;2022-10-16T09:27:45;17.70;99.90
17715;DHT22;8977;50.902;4.314;2022-10-16T09:30:15;17.80;99.90
17715;DHT22;8977;50.902;4.314;2022-10-16T09:32:44;17.80;99.90
17715;DHT22;8977;50.902;4.314;2022-10-16T09:35:14;17.80;99.90
17715;DHT22;8977;50.902;4.314;2022-10-16T09:37:42;17.90;99.90
17715;DHT22;8977;50.902;4.314;2022-10-16T09:40:25;17.90;99.90
17715;DHT22;8977;50.902;4.314;2022-10-16T09:42:57;18.00;99.90
17715;DHT22;8977;50.902;4.314;2022-10-16T09:45:27;18.00;99.90
17715;DHT22;8977;50.902;4.314;2022-10-16T09:47:55;18.10;99.90
17715;DHT22;8977;50.902;4.314;2022-10-16T09:50:24;18.10;99.90
17715;DHT22;8977;50.902;4.314;2022-10-16T09:53:03;18.20;99.90
17715;DHT22;8977;50.902;4.314;2022-10-16T09:55:30;18.30;99.90
17715;DHT22;8977;50.902;4.314;2022-10-16T09:57:57;18.20;99.90
17715;DHT22;8977;50.902;4.314;2022-10-16T10:00:25;18.20;99.90
17715;DHT22;8977;50.902;4.314;2022-10-16T10:02:52;18.30;99.90
17715;DHT22;8977;50.902;4.314;2022-10-16T10:05:22;18.30;99.90
17715;DHT22;8977;50.902;4.314;2022-10-16T10:07:55;18.40;99.90
17715;DHT22;8977;50.902;4.314;2022-10-16T10:10:24;18.40;99.90
17715;DHT22;8977;50.902;4.314;2022-10-16T10:12:52;18.40;99.90
17715;DHT22;8977;50.902;4.314;2022-10-16T10:15:19;18.50;99.90
17715;DHT22;8977;50.902;4.314;2022-10-16T10:17:48;18.50;99.90
17715;DHT22;8977;50.902;4.314;2022-10-16T10:20:24;18.50;99.90
17715;DHT22;8977;50.902;4.314;2022-10-16T10:22:52;18.60;99.90
17715;DHT22;8977;50.902;4.314;2022-10-16T10:25:40;18.70;99.90
17715;DHT22;8977;50.902;4.314;2022-10-16T10:28:24;18.80;99.90
17715;DHT22;8977;50.902;4.314;2022-10-16T10:31:00;18.80;99.90
17715;DHT22;8977;50.902;4.314;2022-10-16T10:33:34;18.80;99.90
17715;DHT22;8977;50.902;4.314;2022-10-16T10:36:12;18.90;99.90
17715;DHT22;8977;50.902;4.314;2022-10-16T10:38:47;18.90;99.90
17715;DHT22;8977;50.902;4.314;2022-10-16T10:41:39;19.00;99.90
17715;DHT22;8977;50.902;4.314;2022-10-16T10:44:18;19.00;99.90
17715;DHT22;8977;50.902;4.314;2022-10-16T10:46:50;19.00;99.90
17715;DHT22;8977;50.902;4.314;2022-10-16T10:49:39;19.00;99.90
17715;DHT22;8977;50.902;4.314;2022-10-16T10:52:33;18.90;99.90
17715;DHT22;8977;50.902;4.314;2022-10-16T10:55:09;18.90;99.90
17715;DHT22;8977;50.902;4.314;2022-10-16T10:57:41;18.90;99.90
17715;DHT22;8977;50.902;4.314;2022-10-16T11:00:17;18.90;99.90
17715;DHT22;8977;50.902;4.314;2022-10-16T11:02:50;18.90;99.90
17715;DHT22;8977;50.902;4.314;2022-10-16T11:05:38;19.00;99.90
17715;DHT22;8977;50.902;4.314;2022-10-16T11:08:11;19.00;99.90
17715;DHT22;8977;50.902;4.314;2022-10-16T11:10:47;19.10;99.90
17715;DHT22;8977;50.902;4.314;2022-10-16T11:13:26;19.10;99.90
17715;DHT22;8977;50.902;4.314;2022-10-16T11:16:02;19.00;99.90
17715;DHT22;8977;50.902;4.314;2022-10-16T11:18:33;19.00;99.90
17715;DHT22;8977;50.902;4.314;2022-10-16T11:21:07;19.10;99.90
17715;DHT22;8977;50.902;4.314;2022-10-16T11:23:40;19.10;99.90
17715;DHT22;8977;50.902;4.314;2022-10-16T11:26:13;19.10;99.90
17715;DHT22;8977;50.902;4.314;2022-10-16T11:28:45;19.10;99.90
17715;DHT22;8977;50.902;4.314;2022-10-16T11:31:17;19.00;99.90
17715;DHT22;8977;50.902;4.314;2022-10-16T11:33:51;19.10;99.90
17715;DHT22;8977;50.902;4.314;2022-10-16T11:36:25;19.00;99.90
17715;DHT22;8977;50.902;4.314;2022-10-16T11:39:00;19.10;99.90
17715;DHT22;8977;50.902;4.314;2022-10-16T11:41:32;19.10;99.90
17715;DHT22;8977;50.902;4.314;2022-10-16T11:44:14;19.20;99.90
17715;DHT22;8977;50.902;4.314;2022-10-16T11:46:48;19.20;99.90
17715;DHT22;8977;50.902;4.314;2022-10-16T11:49:19;19.20;99.90
17715;DHT22;8977;50.902;4.314;2022-10-16T11:51:55;19.20;99.90
17715;DHT22;8977;50.902;4.314;2022-10-16T11:54:32;19.20;99.90
17715;DHT22;8977;50.902;4.314;2022-10-16T11:57:05;19.30;99.90
17715;DHT22;8977;50.902;4.314;2022-10-16T11:59:40;19.20;99.90
17715;DHT22;8977;50.902;4.314;2022-10-16T12:02:33;19.10;99.90
17715;DHT22;8977;50.902;4.314;2022-10-16T12:05:18;19.10;99.90
17715;DHT22;8977;50.902;4.314;2022-10-16T12:07:51;19.10;99.90
17715;DHT22;8977;50.902;4.314;2022-10-16T12:10:26;19.10;99.90
17715;DHT22;8977;50.902;4.314;2022-10-16T12:12:53;19.20;99.90
17715;DHT22;8977;50.902;4.314;2022-10-16T12:15:24;19.20;99.90
17715;DHT22;8977;50.902;4.314;2022-10-16T12:17:52;19.10;99.90
17715;DHT22;8977;50.902;4.314;2022-10-16T12:20:26;19.10;99.90
17715;DHT22;8977;50.902;4.314;2022-10-16T12:22:56;19.20;99.90
17715;DHT22;8977;50.902;4.314;2022-10-16T12:25:27;19.30;99.90
17715;DHT22;8977;50.902;4.314;2022-10-16T12:28:00;19.20;99.90
17715;DHT22;8977;50.902;4.314;2022-10-16T12:30:34;19.20;99.90
17715;DHT22;8977;50.902;4.314;2022-10-16T12:33:04;19.20;99.90
17715;DHT22;8977;50.902;4.314;2022-10-16T12:35:33;19.20;99.90
17715;DHT22;8977;50.902;4.314;2022-10-16T12:38:12;19.20;99.90
17715;DHT22;8977;50.902;4.314;2022-10-16T12:40:43;19.20;99.90
17715;DHT22;8977;50.902;4.314;2022-10-16T12:43:23;19.20;99.90
17715;DHT22;8977;50.902;4.314;2022-10-16T12:45:59;19.10;99.90
17715;DHT22;8977;50.902;4.314;2022-10-16T12:48:27;19.10;99.90
17715;DHT22;8977;50.902;4.314;2022-10-16T12:50:54;19.10;99.90
17715;DHT22;8977;50.902;4.314;2022-10-16T12:53:22;19.10;99.90
17715;DHT22;8977;50.902;4.314;2022-10-16T12:55:59;19.10;99.90
17715;DHT22;8977;50.902;4.314;2022-10-16T12:58:45;19.10;99.90
17715;DHT22;8977;50.902;4.314;2022-10-16T13:01:24;19.10;99.90
17715;DHT22;8977;50.902;4.314;2022-10-16T13:04:17;19.10;99.90
17715;DHT22;8977;50.902;4.314;2022-10-16T13:06:53;19.10;99.90
17715;DHT22;8977;50.902;4.314;2022-10-16T13:09:36;19.10;99.90
17715;DHT22;8977;50.902;4.314;2022-10-16T13:12:20;19.10;99.90
17715;DHT22;8977;50.902;4.314;2022-10-16T13:17:48;19.10;99.90
17715;DHT22;8977;50.902;4.314;2022-10-16T13:20:22;19.10;99.90
17715;DHT22;8977;50.902;4.314;2022-10-16T13:22:59;19.20;99.90
17715;DHT22;8977;50.902;4.314;2022-10-16T13:25:39;19.20;99.90
17715;DHT22;8977;50.902;4.314;2022-10-16T13:28:11;19.20;99.90
17715;DHT22;8977;50.902;4.314;2022-10-16T13:30:40;19.20;99.90
17715;DHT22;8977;50.902;4.314;2022-10-16T13:33:14;19.20;99.90
17715;DHT22;8977;50.902;4.314;2022-10-16T13:35:48;19.20;99.90
17715;DHT22;8977;50.902;4.314;2022-10-16T13:38:17;19.20;99.90
17715;DHT22;8977;50.902;4.314;2022-10-16T13:40:49;19.20;99.90
17715;DHT22;8977;50.902;4.314;2022-10-16T13:43:18;19.20;99.90
17715;DHT22;8977;50.902;4.314;2022-10-16T13:45:54;19.20;99.90
17715;DHT22;8977;50.902;4.314;2022-10-16T13:48:21;19.20;99.90
17715;DHT22;8977;50.902;4.314;2022-10-16T13:51:01;19.10;99.90
17715;DHT22;8977;50.902;4.314;2022-10-16T13:53:31;19.10;99.90
17715;DHT22;8977;50.902;4.314;2022-10-16T13:55:58;19.10;99.90
17715;DHT22;8977;50.902;4.314;2022-10-16T13:58:28;19.10;99.90
17715;DHT22;8977;50.902;4.314;2022-10-16T14:00:56;19.10;99.90
17715;DHT22;8977;50.902;4.314;2022-10-16T14:03:24;19.10;99.90
17715;DHT22;8977;50.902;4.314;2022-10-16T14:05:53;19.10;99.90
17715;DHT22;8977;50.902;4.314;2022-10-16T14:08:21;19.10;99.90
17715;DHT22;8977;50.902;4.314;2022-10-16T14:10:50;19.00;99.90
17715;DHT22;8977;50.902;4.314;2022-10-16T14:13:20;19.00;99.90
17715;DHT22;8977;50.902;4.314;2022-10-16T14:15:52;19.00;99.90
17715;DHT22;8977;50.902;4.314;2022-10-16T14:18:21;19.00;99.90
17715;DHT22;8977;50.902;4.314;2022-10-16T14:20:49;19.00;99.90
17715;DHT22;8977;50.902;4.314;2022-10-16T14:23:22;19.00;99.90
17715;DHT22;8977;50.902;4.314;2022-10-16T14:25:49;19.00;99.90
17715;DHT22;8977;50.902;4.314;2022-10-16T14:28:18;19.00;99.90
17715;DHT22;8977;50.902;4.314;2022-10-16T14:30:54;19.00;99.90
17715;DHT22;8977;50.902;4.314;2022-10-16T14:33:24;19.10;99.90
17715;DHT22;8977;50.902;4.314;2022-10-16T14:36:03;19.10;99.90
17715;DHT22;8977;50.902;4.314;2022-10-16T14:38:31;19.10;99.90
17715;DHT22;8977;50.902;4.314;2022-10-16T14:40:59;19.00;99.90
17715;DHT22;8977;50.902;4.314;2022-10-16T14:43:31;19.00;99.90
17715;DHT22;8977;50.902;4.314;2022-10-16T14:46:02;19.00;99.90
17715;DHT22;8977;50.902;4.314;2022-10-16T14:48:30;19.00;99.90
17715;DHT22;8977;50.902;4.314;2022-10-16T14:50:57;19.00;99.90
17715;DHT22;8977;50.902;4.314;2022-10-16T14:53:24;19.00;99.90
17715;DHT22;8977;50.902;4.314;2022-10-16T14:55:50;19.00;99.90
17715;DHT22;8977;50.902;4.314;2022-10-16T14:58:19;19.00;99.90
17715;DHT22;8977;50.902;4.314;2022-10-16T15:00:47;19.00;99.90
17715;DHT22;8977;50.902;4.314;2022-10-16T15:03:15;19.10;99.90
17715;DHT22;8977;50.902;4.314;2022-10-16T15:05:42;19.10;99.90
17715;DHT22;8977;50.902;4.314;2022-10-16T15:08:09;19.10;99.90
17715;DHT22;8977;50.902;4.314;2022-10-16T15:10:41;19.10;99.90
17715;DHT22;8977;50.902;4.314;2022-10-16T15:13:19;19.10;99.90
17715;DHT22;8977;50.902;4.314;2022-10-16T15:15:49;19.10;99.90
17715;DHT22;8977;50.902;4.314;2022-10-16T15:18:17;19.00;99.90
17715;DHT22;8977;50.902;4.314;2022-10-16T15:20:47;19.00;99.90
17715;DHT22;8977;50.902;4.314;2022-10-16T15:23:16;19.00;99.90
17715;DHT22;8977;50.902;4.314;2022-10-16T15:25:45;19.00;99.90
17715;DHT22;8977;50.902;4.314;2022-10-16T15:28:13;19.00;99.90
17715;DHT22;8977;50.902;4.314;2022-10-16T15:30:41;19.00;99.90
17715;DHT22;8977;50.902;4.314;2022-10-16T15:33:13;19.00;99.90
17715;DHT22;8977;50.902;4.314;2022-10-16T15:35:41;19.00;99.90
17715;DHT22;8977;50.902;4.314;2022-10-16T15:38:11;19.00;99.90
17715;DHT22;8977;50.902;4.314;2022-10-16T15:40:38;18.90;99.90
17715;DHT22;8977;50.902;4.314;2022-10-16T15:43:05;18.90;99.90
17715;DHT22;8977;50.902;4.314;2022-10-16T15:45:32;18.90;99.90
17715;DHT22;8977;50.902;4.314;2022-10-16T15:47:59;18.90;99.90
17715;DHT22;8977;50.902;4.314;2022-10-16T15:50:26;18.90;99.90
17715;DHT22;8977;50.902;4.314;2022-10-16T15:52:54;18.90;99.90
17715;DHT22;8977;50.902;4.314;2022-10-16T15:55:21;18.90;99.90
17715;DHT22;8977;50.902;4.314;2022-10-16T15:57:48;18.80;99.90
17715;DHT22;8977;50.902;4.314;2022-10-16T16:00:17;18.80;99.90
17715;DHT22;8977;50.902;4.314;2022-10-16T16:02:50;18.80;99.90
17715;DHT22;8977;50.902;4.314;2022-10-16T16:05:18;18.80;99.90
17715;DHT22;8977;50.902;4.314;2022-10-16T16:07:45;18.80;99.90